Jacksonville, North Carolina
Current Conditions -  °F | °C
As of 11:56 PM on Monday 22 Dec 2014 (Local Time) from KNCA Reporting Station
Haze Haze  
Wind Chill: 40°   Ceiling: 200
Heat Index: 44°   Visibility: 1.2mi
Dew Point: 43°   Wind: 8mph
Humidity: 96%   Direction: 330°NNW
Pressure: 30.03"   Gusts: NA
Location:  34.75°N, 77.42°W
Report Text: KNCA 230456Z AUTO 33007KT 1 1/4SM BR OVC002 07/06 A3003 RMK AO2 SLP172 T00670061 400890061
Loading
Personal Weather Stations






























Interactive Weather Map New forecast layout! Learn more

10-Day Weather Forecast

Advertisements
Track Severe Weather on mobile